Time;durP1;ratioP1;P1;durP2;ratioP2;P2;SDS_P1;SDS_P2;PMS_P1;PMS_P2;Temp;Humidity;BMP_temperature;BMP_pressure;BME280_temperature;BME280_humidity;BME280_pressure;Samples;Min_cycle;Max_cycle;Signal;HPM_P1;HPM_P2
2022/09/17 00:01:23;;;;;;;6.67;1.97;;;12.00;99.90;;;;;;5079925;28;20163;-82
2022/09/17 00:04:02;;;;;;;9.40;2.10;;;12.00;99.90;;;;;;5079252;28;20168;-83
2022/09/17 00:06:52;;;;;;;6.10;1.90;;;12.00;99.90;;;;;;5100036;28;20522;-84
2022/09/17 00:09:25;;;;;;;4.93;1.47;;;12.10;99.90;;;;;;5079067;28;20176;-85
2022/09/17 00:12:00;;;;;;;6.43;1.70;;;12.30;99.90;;;;;;5078084;28;20227;-85
2022/09/17 00:15:19;;;;;;;7.57;1.77;;;12.40;98.90;;;;;;5078322;28;20638;-88
2022/09/17 00:17:45;;;;;;;6.17;1.63;;;12.20;98.30;;;;;;5077286;28;20575;-84
2022/09/17 00:20:12;;;;;;;6.17;1.60;;;12.20;99.20;;;;;;5078475;28;20184;-84
2022/09/17 00:22:41;;;;;;;11.17;1.73;;;12.10;99.90;;;;;;5078470;28;20194;-83
2022/09/17 00:25:07;;;;;;;8.53;1.90;;;12.10;99.90;;;;;;5063825;28;20180;-83
2022/09/17 00:27:33;;;;;;;6.60;1.53;;;12.10;99.90;;;;;;5080631;28;20271;-87
2022/09/17 00:30:00;;;;;;;6.73;1.53;;;12.10;99.90;;;;;;5079774;28;20549;-84
2022/09/17 00:32:27;;;;;;;10.27;1.80;;;12.00;99.90;;;;;;5081916;28;20201;-87
2022/09/17 00:34:54;;;;;;;5.57;1.30;;;11.90;99.90;;;;;;5082314;28;20175;-84
2022/09/17 00:37:21;;;;;;;4.20;1.60;;;12.00;99.90;;;;;;5082741;28;20168;-84
2022/09/17 00:39:48;;;;;;;5.40;1.73;;;11.90;99.90;;;;;;5080031;28;20180;-86
2022/09/17 00:42:16;;;;;;;4.53;1.70;;;11.80;99.90;;;;;;5080290;28;20188;-84
2022/09/17 00:45:00;;;;;;;4.77;1.73;;;11.80;99.90;;;;;;5080306;28;20305;-84
2022/09/17 00:47:30;;;;;;;11.47;1.93;;;11.80;99.90;;;;;;5081648;28;20266;-84
2022/09/17 00:50:03;;;;;;;7.47;1.50;;;11.70;99.90;;;;;;5093156;28;20205;-86
2022/09/17 00:52:36;;;;;;;7.83;1.50;;;11.90;99.90;;;;;;5103037;28;20665;-85
2022/09/17 00:55:30;;;;;;;9.13;2.07;;;11.80;99.90;;;;;;5086702;28;20689;-83
2022/09/17 00:58:00;;;;;;;6.63;1.70;;;11.70;99.90;;;;;;5076590;28;20268;-84
2022/09/17 01:00:26;;;;;;;6.73;2.43;;;11.80;99.90;;;;;;5088724;28;20205;-85
2022/09/17 01:02:56;;;;;;;8.53;2.00;;;11.70;99.90;;;;;;5086466;28;20175;-82
2022/09/17 01:06:09;;;;;;;7.23;1.93;;;11.80;99.90;;;;;;5108597;28;20581;-83
2022/09/17 01:09:37;;;;;;;7.77;2.10;;;11.80;99.90;;;;;;5116548;28;20155;-84
2022/09/17 01:12:18;;;;;;;8.07;1.73;;;11.90;99.90;;;;;;5091549;28;20171;-83
2022/09/17 01:15:08;;;;;;;4.27;1.53;;;11.80;99.90;;;;;;5084910;28;20229;-83
2022/09/17 01:18:06;;;;;;;6.40;2.00;;;11.80;99.90;;;;;;5104086;28;20536;-82
2022/09/17 01:20:54;;;;;;;10.80;1.93;;;11.80;99.90;;;;;;5109842;28;20239;-81
2022/09/17 01:23:27;;;;;;;9.97;2.50;;;11.90;99.90;;;;;;5095768;28;20176;-84
2022/09/17 01:26:36;;;;;;;6.70;2.07;;;11.90;99.90;;;;;;5098145;28;20164;-82
2022/09/17 01:29:26;;;;;;;10.10;1.80;;;11.90;99.90;;;;;;5095801;28;20218;-81
2022/09/17 01:32:31;;;;;;;6.53;1.50;;;12.00;99.90;;;;;;5091993;28;20174;-82
2022/09/17 01:35:45;;;;;;;7.60;2.00;;;12.00;99.90;;;;;;5102283;28;20155;-83
2022/09/17 01:38:42;;;;;;;13.03;2.37;;;12.10;99.90;;;;;;5051489;28;20223;-85
2022/09/17 01:41:49;;;;;;;11.37;2.17;;;12.10;99.90;;;;;;5108721;28;20195;-84
2022/09/17 01:44:28;;;;;;;8.67;1.97;;;12.00;99.90;;;;;;5078750;28;20186;-82
2022/09/17 01:47:17;;;;;;;10.07;2.57;;;12.00;99.90;;;;;;5081119;28;20179;-85
2022/09/17 01:49:44;;;;;;;5.57;1.60;;;12.00;99.90;;;;;;5082971;28;20207;-81
2022/09/17 01:52:13;;;;;;;7.30;2.40;;;12.00;99.90;;;;;;5087862;28;20171;-89
2022/09/17 01:54:50;;;;;;;8.47;1.57;;;11.90;99.90;;;;;;5102782;28;20190;-90
2022/09/17 01:57:28;;;;;;;6.60;2.03;;;11.90;99.90;;;;;;5091304;28;20164;-84
2022/09/17 02:00:16;;;;;;;7.60;2.20;;;11.90;99.90;;;;;;5082102;28;20175;-84
2022/09/17 02:03:29;;;;;;;8.03;2.00;;;11.90;99.90;;;;;;5103905;28;20170;-83
2022/09/17 02:06:10;;;;;;;8.37;1.67;;;11.90;99.90;;;;;;5081316;28;20202;-84
2022/09/17 02:09:15;;;;;;;9.83;2.37;;;11.80;99.90;;;;;;5082188;28;20187;-84
2022/09/17 02:11:45;;;;;;;7.97;2.43;;;11.90;99.90;;;;;;5082324;28;20182;-84
2022/09/17 02:14:21;;;;;;;7.00;1.80;;;11.90;99.90;;;;;;5081994;28;20206;-83
2022/09/17 02:16:54;;;;;;;11.43;2.33;;;12.10;99.90;;;;;;5080462;28;20179;-84
2022/09/17 02:19:26;;;;;;;8.00;1.80;;;12.10;99.90;;;;;;5080341;28;20246;-83
2022/09/17 02:22:20;;;;;;;10.90;2.40;;;12.00;99.90;;;;;;5080249;28;20659;-85
2022/09/17 02:25:00;;;;;;;8.20;2.50;;;12.10;99.90;;;;;;5077771;28;20266;-83
2022/09/17 02:27:44;;;;;;;10.27;2.30;;;12.00;99.90;;;;;;5079032;28;20230;-84
2022/09/17 02:30:10;;;;;;;9.73;2.30;;;12.10;99.90;;;;;;5078326;28;20176;-84
2022/09/17 02:32:36;;;;;;;8.53;2.13;;;12.10;99.90;;;;;;5079560;28;20175;-84
2022/09/17 02:35:03;;;;;;;9.63;2.27;;;12.30;99.90;;;;;;5078371;28;20709;-86
2022/09/17 02:37:29;;;;;;;8.50;2.00;;;12.30;99.90;;;;;;5077391;28;20270;-84
2022/09/17 02:39:59;;;;;;;8.03;2.33;;;12.50;99.90;;;;;;5077583;28;20175;-84
2022/09/17 02:42:51;;;;;;;8.63;2.20;;;12.50;99.90;;;;;;5077968;28;20187;-84
2022/09/17 02:45:48;;;;;;;8.57;2.33;;;12.60;99.90;;;;;;5077541;28;20164;-85
2022/09/17 02:48:29;;;;;;;6.93;2.00;;;12.60;99.90;;;;;;5077271;28;20172;-85
2022/09/17 02:51:30;;;;;;;10.30;2.13;;;12.60;99.90;;;;;;5096043;28;20164;-82
2022/09/17 02:57:45;;;;;;;7.10;1.83;;;12.50;99.90;;;;;;5096176;28;20532;-84
2022/09/17 03:00:17;;;;;;;6.87;1.50;;;12.50;99.90;;;;;;5077087;28;20191;-84
2022/09/17 03:03:15;;;;;;;10.30;2.60;;;12.50;99.90;;;;;;5076543;28;20171;-85
2022/09/17 03:05:45;;;;;;;8.73;2.37;;;12.30;99.90;;;;;;5076963;28;20167;-84
2022/09/17 03:08:39;;;;;;;9.00;2.37;;;12.20;99.90;;;;;;5076917;28;20194;-85
2022/09/17 03:11:09;;;;;;;11.27;2.93;;;12.10;99.90;;;;;;5076199;28;20175;-83
2022/09/17 03:14:20;;;;;;;9.80;2.27;;;12.10;99.90;;;;;;5076768;28;20171;-83
2022/09/17 03:17:09;;;;;;;9.00;2.30;;;12.10;99.90;;;;;;5076152;28;20182;-83
2022/09/17 03:19:37;;;;;;;10.37;2.10;;;12.10;99.90;;;;;;5089554;28;20284;-83
2022/09/17 03:22:05;;;;;;;9.77;2.00;;;12.10;99.90;;;;;;5095334;28;20168;-83
2022/09/17 03:24:34;;;;;;;8.10;2.20;;;12.10;99.90;;;;;;5079816;28;20524;-82
2022/09/17 03:27:13;;;;;;;8.97;2.03;;;12.10;99.90;;;;;;5078038;28;20172;-83
2022/09/17 03:29:42;;;;;;;7.50;1.90;;;12.00;99.90;;;;;;5078171;28;20190;-84
2022/09/17 03:32:08;;;;;;;9.80;2.17;;;12.00;99.90;;;;;;5077150;28;20183;-84
2022/09/17 03:34:37;;;;;;;11.77;2.23;;;12.00;99.90;;;;;;5076904;28;20270;-84
2022/09/17 03:37:03;;;;;;;11.13;2.40;;;12.10;99.90;;;;;;5077049;28;20688;-83
2022/09/17 03:39:30;;;;;;;7.00;2.30;;;11.90;99.90;;;;;;5078464;28;20239;-86
2022/09/17 03:41:55;;;;;;;8.93;2.13;;;11.80;99.90;;;;;;5078348;28;20199;-84
2022/09/17 03:44:22;;;;;;;10.73;2.53;;;11.80;99.90;;;;;;5076983;28;20177;-84
2022/09/17 03:46:50;;;;;;;8.70;3.13;;;11.70;99.90;;;;;;5086927;28;20183;-92
2022/09/17 03:49:16;;;;;;;7.50;2.10;;;11.80;99.90;;;;;;5084180;28;20165;-83
2022/09/17 03:51:42;;;;;;;9.27;2.33;;;11.80;99.90;;;;;;5101044;28;20231;-87
2022/09/17 03:54:08;;;;;;;9.43;2.70;;;11.70;99.90;;;;;;5094074;28;20194;-83
2022/09/17 03:56:34;;;;;;;6.63;2.00;;;11.80;99.90;;;;;;5100099;28;20239;-83
2022/09/17 03:59:00;;;;;;;10.77;2.80;;;11.80;99.90;;;;;;5082904;28;20207;-84
2022/09/17 04:01:26;;;;;;;8.07;2.20;;;11.80;99.90;;;;;;5081545;28;20526;-86
2022/09/17 04:07:15;;;;;;;9.00;3.10;;;11.80;99.90;;;;;;5099768;28;20175;-86
2022/09/17 04:09:42;;;;;;;12.60;2.77;;;11.70;99.90;;;;;;5082351;28;20179;-85
2022/09/17 04:12:07;;;;;;;9.60;2.73;;;11.80;99.90;;;;;;5081431;28;20544;-88
2022/09/17 04:14:35;;;;;;;14.00;2.83;;;11.60;99.90;;;;;;5092116;28;20186;-84
2022/09/17 04:17:01;;;;;;;8.10;2.40;;;11.60;99.90;;;;;;5093617;28;20244;-85
2022/09/17 04:19:27;;;;;;;7.83;2.23;;;11.60;99.90;;;;;;5098401;28;20714;-87
2022/09/17 04:21:53;;;;;;;15.93;2.37;;;11.60;99.90;;;;;;5094345;28;20608;-82
2022/09/17 04:24:21;;;;;;;12.27;2.70;;;11.50;99.90;;;;;;5085174;28;20168;-86
2022/09/17 04:26:50;;;;;;;11.47;2.43;;;11.50;99.90;;;;;;5083252;28;20587;-83
2022/09/17 04:29:22;;;;;;;9.77;2.40;;;11.50;99.90;;;;;;5083324;28;20215;-83
2022/09/17 04:31:48;;;;;;;13.13;3.27;;;11.50;99.90;;;;;;5065737;28;20176;-84
2022/09/17 04:34:16;;;;;;;9.67;2.53;;;11.60;99.90;;;;;;5083732;28;20654;-84
2022/09/17 04:36:44;;;;;;;9.67;2.60;;;11.60;99.90;;;;;;5101365;28;20182;-83
2022/09/17 04:39:52;;;;;;;8.67;2.73;;;11.70;99.90;;;;;;5103067;28;20191;-85
2022/09/17 04:42:21;;;;;;;13.00;2.60;;;11.60;99.90;;;;;;5114270;28;20218;-84
2022/09/17 04:44:58;;;;;;;13.63;2.50;;;11.60;99.90;;;;;;5077996;28;20239;-84
2022/09/17 04:47:57;;;;;;;12.93;2.77;;;11.60;99.90;;;;;;5073900;28;20187;-84
2022/09/17 04:50:46;;;;;;;12.20;2.70;;;11.70;99.90;;;;;;5090316;28;20235;-86
2022/09/17 04:53:13;;;;;;;9.77;2.70;;;11.80;99.90;;;;;;5108556;28;20164;-86
2022/09/17 04:56:05;;;;;;;12.27;2.37;;;12.00;99.90;;;;;;5075006;28;20183;-89
2022/09/17 04:59:00;;;;;;;16.93;3.60;;;12.10;99.90;;;;;;5088130;28;20200;-88
2022/09/17 05:01:45;;;;;;;12.27;3.03;;;12.10;99.90;;;;;;5081713;28;20274;-88
2022/09/17 05:04:31;;;;;;;11.70;2.97;;;12.10;99.90;;;;;;5081102;28;20168;-88
2022/09/17 05:06:59;;;;;;;7.73;2.23;;;12.00;99.90;;;;;;5081219;28;20162;-89
2022/09/17 05:09:46;;;;;;;11.20;2.60;;;11.80;99.90;;;;;;5081920;28;20180;-87
2022/09/17 05:12:27;;;;;;;10.07;2.90;;;11.70;99.90;;;;;;5080392;28;20226;-88
2022/09/17 05:15:13;;;;;;;13.73;3.20;;;11.70;99.90;;;;;;5080361;28;20168;-88
2022/09/17 05:17:39;;;;;;;12.67;2.97;;;11.70;99.90;;;;;;5086710;28;20170;-88
2022/09/17 05:20:05;;;;;;;13.23;3.10;;;11.60;99.90;;;;;;5089960;28;20164;-89
2022/09/17 05:23:14;;;;;;;12.27;2.73;;;11.60;99.90;;;;;;5096798;28;20178;-87
2022/09/17 05:25:51;;;;;;;13.27;3.30;;;11.70;99.90;;;;;;5102623;28;20254;-87
2022/09/17 05:28:51;;;;;;;9.90;2.60;;;11.60;99.90;;;;;;5114741;28;20191;-89
2022/09/17 05:31:23;;;;;;;12.27;2.50;;;11.60;99.90;;;;;;5051678;28;20188;-86
2022/09/17 05:33:54;;;;;;;11.67;2.43;;;11.80;99.90;;;;;;5103788;28;20190;-88
2022/09/17 05:36:44;;;;;;;10.77;3.77;;;11.80;99.90;;;;;;5102353;28;20174;-87
2022/09/17 05:42:32;;;;;;;12.50;3.27;;;11.70;99.90;;;;;;5109974;28;20205;-87
2022/09/17 05:45:34;;;;;;;11.53;2.67;;;11.70;99.90;;;;;;5098612;28;20172;-87
2022/09/17 05:48:44;;;;;;;10.40;2.53;;;11.70;99.90;;;;;;5099785;28;20172;-87
2022/09/17 05:51:19;;;;;;;11.57;2.50;;;11.60;99.90;;;;;;5096282;28;20206;-88
2022/09/17 05:54:26;;;;;;;13.10;3.10;;;11.70;99.90;;;;;;5095662;28;20179;-86
2022/09/17 06:00:36;;;;;;;6.90;2.40;;;11.90;99.90;;;;;;5113478;28;20190;-87
2022/09/17 06:03:11;;;;;;;8.70;2.40;;;12.00;99.90;;;;;;5093215;28;20184;-87
2022/09/17 06:06:14;;;;;;;12.53;3.17;;;11.90;99.90;;;;;;5117757;28;20163;-88
2022/09/17 06:09:09;;;;;;;13.00;2.73;;;12.00;99.90;;;;;;5064942;28;20264;-88
2022/09/17 06:11:42;;;;;;;11.67;2.23;;;11.90;99.90;;;;;;5057904;28;20221;-86
2022/09/17 06:17:37;;;;;;;9.37;2.10;;;12.10;99.80;;;;;;5056258;28;20149;-88
2022/09/17 06:20:34;;;;;;;8.53;2.30;;;12.10;99.30;;;;;;5055798;28;20213;-87
2022/09/17 06:23:24;;;;;;;8.93;2.47;;;12.20;99.30;;;;;;5049721;28;20165;-88
2022/09/17 06:25:58;;;;;;;7.87;1.70;;;12.10;99.40;;;;;;5044497;28;20170;-88
2022/09/17 06:28:41;;;;;;;11.00;2.80;;;12.00;99.70;;;;;;5048022;28;20173;-87
2022/09/17 06:31:48;;;;;;;11.00;2.70;;;11.80;99.90;;;;;;5047989;28;20176;-88
2022/09/17 06:34:25;;;;;;;12.50;2.27;;;11.80;99.90;;;;;;5046675;28;20188;-87
2022/09/17 06:36:54;;;;;;;7.60;2.23;;;11.90;99.90;;;;;;5044983;28;20677;-86
2022/09/17 06:39:46;;;;;;;7.87;2.60;;;11.90;99.90;;;;;;5045615;28;20217;-88
2022/09/17 06:42:22;;;;;;;8.53;2.37;;;12.00;99.90;;;;;;5044727;28;20213;-88
2022/09/17 06:44:58;;;;;;;10.73;2.40;;;11.90;99.90;;;;;;5043013;28;20219;-88
2022/09/17 06:47:45;;;;;;;10.53;2.93;;;11.90;99.90;;;;;;5041967;28;20514;-89
2022/09/17 06:50:53;;;;;;;9.03;2.60;;;11.90;99.90;;;;;;5022624;28;20619;-89
2022/09/17 06:53:24;;;;;;;10.37;2.53;;;11.90;99.90;;;;;;5046600;28;20204;-86
2022/09/17 06:56:07;;;;;;;8.77;2.80;;;12.00;99.90;;;;;;5048544;28;20241;-87
2022/09/17 06:58:42;;;;;;;8.23;2.50;;;12.10;99.90;;;;;;5045842;28;20205;-88
2022/09/17 07:04:48;;;;;;;11.30;2.30;;;12.30;99.90;;;;;;5053379;28;20157;-87
2022/09/17 07:07:26;;;;;;;13.23;3.30;;;12.30;99.90;;;;;;5057837;28;20169;-89
2022/09/17 07:10:12;;;;;;;14.13;3.00;;;12.30;99.90;;;;;;5055833;28;20185;-87
2022/09/17 07:13:16;;;;;;;10.73;2.40;;;12.40;99.90;;;;;;5052261;28;20162;-88
2022/09/17 07:15:58;;;;;;;11.90;2.43;;;12.30;99.90;;;;;;5049643;28;20169;-87
2022/09/17 07:21:50;;;;;;;15.07;2.97;;;12.30;99.90;;;;;;5052153;28;20584;-86
2022/09/17 07:24:24;;;;;;;12.23;2.70;;;12.10;99.90;;;;;;5049758;28;20173;-86
2022/09/17 07:30:28;;;;;;;10.10;2.57;;;12.30;99.90;;;;;;5055736;28;20212;-85
2022/09/17 07:36:32;;;;;;;9.53;2.23;;;12.40;99.90;;;;;;5049487;28;20177;-89
2022/09/17 07:39:50;;;;;;;10.90;2.47;;;12.40;99.90;;;;;;5061207;28;20246;-86
2022/09/17 07:45:40;;;;;;;7.73;2.60;;;12.50;99.90;;;;;;5095472;28;20143;-88
2022/09/17 07:48:54;;;;;;;11.23;2.60;;;12.60;99.90;;;;;;5094073;28;20160;-87
2022/09/17 07:51:29;;;;;;;10.50;2.53;;;12.60;99.90;;;;;;5075527;28;20186;-88
2022/09/17 07:57:39;;;;;;;5.60;2.13;;;12.80;99.90;;;;;;5095617;28;20262;-87
2022/09/17 08:00:36;;;;;;;10.40;2.37;;;12.90;99.90;;;;;;5091370;28;20198;-87
2022/09/17 08:06:36;;;;;;;6.63;2.10;;;13.20;99.90;;;;;;5096819;28;20160;-86
2022/09/17 08:09:15;;;;;;;8.80;1.87;;;13.30;99.90;;;;;;5076870;28;20354;-89
2022/09/17 08:15:30;;;;;;;7.17;1.97;;;13.30;99.90;;;;;;5098678;28;20171;-87
2022/09/17 08:21:19;;;;;;;5.47;2.27;;;13.40;99.90;;;;;;5096225;28;20151;-87
2022/09/17 08:27:07;;;;;;;6.80;2.07;;;13.30;98.40;;;;;;5094298;28;20212;-88
2022/09/17 08:29:51;;;;;;;6.97;1.93;;;13.30;98.30;;;;;;5093266;28;20215;-87
2022/09/17 08:32:43;;;;;;;8.23;1.87;;;13.60;98.20;;;;;;5067598;28;20263;-89
2022/09/17 08:35:38;;;;;;;8.50;2.20;;;13.70;96.10;;;;;;5068332;28;20164;-89
2022/09/17 08:38:04;;;;;;;6.90;1.90;;;13.70;93.10;;;;;;5068727;28;20266;-88
2022/09/17 08:43:55;;;;;;;8.47;1.90;;;13.90;86.30;;;;;;5079300;28;20267;-89
2022/09/17 08:46:34;;;;;;;9.53;1.57;;;14.00;88.10;;;;;;5071294;28;20216;-90
2022/09/17 08:49:24;;;;;;;11.37;1.93;;;14.10;85.00;;;;;;5075019;28;20164;-89
2022/09/17 08:52:25;;;;;;;4.03;1.47;;;13.90;79.90;;;;;;5089909;28;20180;-89
2022/09/17 08:54:59;;;;;;;7.43;1.73;;;13.80;83.70;;;;;;5077157;28;20176;-89
2022/09/17 08:57:40;;;;;;;6.73;1.47;;;13.70;84.20;;;;;;5079233;28;20161;-91
2022/09/17 09:00:41;;;;;;;5.20;1.57;;;13.80;89.30;;;;;;5080453;28;20192;-91
2022/09/17 09:03:47;;;;;;;5.47;1.77;;;13.90;90.20;;;;;;5079784;28;20172;-92
2022/09/17 09:06:54;;;;;;;6.30;1.70;;;14.00;90.30;;;;;;5081203;28;20222;-89
2022/09/17 09:09:37;;;;;;;7.00;1.50;;;13.80;86.50;;;;;;5080861;28;20202;-89
2022/09/17 09:12:34;;;;;;;6.37;1.70;;;13.70;88.30;;;;;;5083216;28;20180;-91
2022/09/17 09:15:30;;;;;;;7.97;2.03;;;13.80;90.10;;;;;;5081587;28;20197;-90
2022/09/17 09:18:04;;;;;;;6.20;1.67;;;13.60;82.10;;;;;;5080218;28;20181;-91
2022/09/17 09:21:07;;;;;;;11.53;2.10;;;13.50;92.30;;;;;;5093481;28;20164;-93
2022/09/17 09:30:22;;;;;;;4.57;1.50;;;13.40;96.00;;;;;;5093350;28;20163;-94
2022/09/17 09:33:03;;;;;;;3.70;1.33;;;13.20;97.50;;;;;;5069968;28;20188;-92
2022/09/17 09:35:43;;;;;;;5.10;1.93;;;13.20;98.80;;;;;;5075715;28;20167;-92
2022/09/17 09:38:47;;;;;;;5.33;1.50;;;13.20;99.00;;;;;;5070289;28;20283;-91
2022/09/17 09:41:31;;;;;;;3.30;1.00;;;13.10;97.20;;;;;;5043790;28;20232;-92
2022/09/17 09:44:08;;;;;;;4.50;1.80;;;13.10;96.80;;;;;;5075686;28;20179;-93
2022/09/17 09:47:14;;;;;;;4.77;1.50;;;13.30;97.00;;;;;;5094491;28;20180;-90
2022/09/17 09:50:21;;;;;;;4.13;1.00;;;13.30;92.60;;;;;;5069753;28;20203;-91
2022/09/17 09:53:13;;;;;;;4.50;1.10;;;13.40;88.20;;;;;;5098638;28;20159;-92
2022/09/17 09:56:21;;;;;;;6.43;1.60;;;13.30;79.40;;;;;;5079283;28;20259;-90
2022/09/17 09:58:50;;;;;;;3.17;1.47;;;13.50;83.70;;;;;;5076740;28;20216;-91
2022/09/17 10:01:24;;;;;;;7.43;1.63;;;13.70;86.00;;;;;;5075080;28;20223;-91
2022/09/17 10:03:57;;;;;;;5.17;1.70;;;13.80;84.70;;;;;;5065580;28;20189;-89
2022/09/17 10:06:23;;;;;;;4.47;1.60;;;13.70;83.60;;;;;;5067722;28;20263;-90
2022/09/17 10:09:21;;;;;;;4.27;1.67;;;14.00;88.30;;;;;;5072970;28;20177;-89
2022/09/17 10:12:15;;;;;;;5.63;1.67;;;13.90;87.40;;;;;;5074277;28;20207;-95
2022/09/17 10:14:44;;;;;;;6.73;1.57;;;14.10;81.60;;;;;;5096700;28;20183;-92
2022/09/17 10:17:24;;;;;;;4.60;1.30;;;14.40;75.80;;;;;;5097265;28;20708;-90
2022/09/17 10:20:24;;;;;;;4.57;1.20;;;14.20;64.50;;;;;;5091807;28;20199;-89
2022/09/17 10:22:52;;;;;;;4.87;1.57;;;14.10;64.70;;;;;;5087636;28;20206;-87
2022/09/17 10:25:41;;;;;;;3.63;1.70;;;14.20;66.40;;;;;;5088870;28;20183;-87
2022/09/17 10:28:47;;;;;;;2.80;1.20;;;14.20;65.80;;;;;;5074037;28;20180;-86
2022/09/17 10:31:45;;;;;;;6.00;1.67;;;14.00;56.40;;;;;;5093665;28;20195;-87
2022/09/17 10:34:25;;;;;;;6.00;1.83;;;13.70;62.60;;;;;;5075846;28;20177;-87
2022/09/17 10:36:54;;;;;;;4.63;1.83;;;13.70;70.70;;;;;;5089706;28;20179;-90
2022/09/17 10:39:45;;;;;;;5.30;1.53;;;13.50;70.60;;;;;;5091831;28;20215;-86
2022/09/17 10:42:19;;;;;;;4.27;1.40;;;13.60;72.60;;;;;;5092488;28;20225;-87
2022/09/17 10:44:59;;;;;;;4.77;1.87;;;13.80;76.10;;;;;;5094377;28;20173;-89
2022/09/17 10:47:43;;;;;;;4.83;1.60;;;14.10;73.10;;;;;;5097133;28;20168;-89
2022/09/17 10:50:25;;;;;;;4.30;1.77;;;14.20;68.40;;;;;;5078063;28;20207;-87
2022/09/17 10:52:59;;;;;;;3.23;1.37;;;14.20;70.40;;;;;;5073758;28;20169;-89
2022/09/17 10:56:19;;;;;;;4.53;1.30;;;14.10;66.70;;;;;;5091166;28;20170;-89
2022/09/17 10:58:53;;;;;;;4.47;1.53;;;13.90;69.10;;;;;;5006946;28;20226;-89
2022/09/17 11:01:24;;;;;;;5.00;1.30;;;13.90;79.90;;;;;;5092330;28;20235;-89
2022/09/17 11:04:05;;;;;;;2.93;1.20;;;13.90;75.60;;;;;;5084882;28;20182;-88
2022/09/17 11:07:05;;;;;;;5.33;1.50;;;13.90;74.40;;;;;;5080070;28;20271;-87
2022/09/17 11:09:59;;;;;;;3.03;1.20;;;13.80;70.10;;;;;;5084199;28;20175;-88
2022/09/17 11:12:58;;;;;;;4.83;1.30;;;13.90;79.50;;;;;;5083513;28;20249;-88
2022/09/17 11:16:10;;;;;;;4.20;1.40;;;14.00;73.50;;;;;;5044886;28;20177;-91
2022/09/17 11:19:08;;;;;;;5.63;1.20;;;14.10;77.00;;;;;;5060412;28;20212;-88
2022/09/17 11:21:47;;;;;;;5.63;1.53;;;14.00;77.20;;;;;;5033708;28;20185;-87
2022/09/17 11:24:50;;;;;;;4.93;1.50;;;13.90;79.30;;;;;;5021421;28;20171;-91
2022/09/17 11:28:07;;;;;;;5.50;1.60;;;14.00;82.20;;;;;;5022330;28;20646;-90
2022/09/17 11:31:04;;;;;;;5.23;1.67;;;14.00;79.60;;;;;;4969556;28;20586;-89
2022/09/17 11:34:12;;;;;;;6.60;1.80;;;14.00;73.90;;;;;;5011364;28;20176;-88
2022/09/17 11:37:00;;;;;;;4.70;1.37;;;13.90;77.10;;;;;;4931730;29;20202;-88
2022/09/17 11:39:41;;;;;;;3.40;1.30;;;14.00;79.60;;;;;;4957373;28;20230;-92
2022/09/17 11:42:13;;;;;;;6.70;1.70;;;14.00;77.10;;;;;;5020630;28;20213;-89
2022/09/17 11:45:14;;;;;;;;;;;;;;;;;;;;;
2022/09/17 11:47:51;;;;;;;8.43;2.00;;;14.00;83.70;;;;;;5029124;28;20238;-89
2022/09/17 11:50:41;;;;;;;7.90;1.97;;;14.10;86.00;;;;;;5011403;28;20206;-87
2022/09/17 11:53:26;;;;;;;7.17;2.43;;;14.30;83.70;;;;;;5065057;28;20189;-89
2022/09/17 11:55:59;;;;;;;10.30;2.93;;;14.20;71.60;;;;;;5051888;28;20718;-86
2022/09/17 11:58:41;;;;;;;7.67;2.37;;;14.20;74.30;;;;;;5067826;28;20178;-86
2022/09/17 12:01:25;;;;;;;8.20;2.10;;;14.20;78.40;;;;;;5067796;28;20220;-89
2022/09/17 12:04:30;;;;;;;7.63;2.40;;;14.20;77.50;;;;;;5055578;28;20251;-86
2022/09/17 12:07:38;;;;;;;7.10;2.27;;;14.10;77.30;;;;;;5057879;28;20168;-88
2022/09/17 12:11:01;;;;;;;7.30;2.13;;;14.20;72.30;;;;;;5049229;28;20192;-90
2022/09/17 12:13:33;;;;;;;6.90;1.97;;;14.40;60.00;;;;;;5047835;28;20270;-90
2022/09/17 12:16:22;;;;;;;6.67;1.90;;;14.40;58.10;;;;;;5085124;28;20168;-88
2022/09/17 12:18:57;;;;;;;8.10;2.00;;;14.40;59.60;;;;;;5080995;28;20210;-87
2022/09/17 12:21:47;;;;;;;7.13;1.77;;;14.50;58.00;;;;;;5082049;28;20201;-86
2022/09/17 12:24:29;;;;;;;8.63;2.13;;;14.40;44.20;;;;;;5101581;28;20174;-86
2022/09/17 12:27:07;;;;;;;9.00;2.10;;;14.60;45.60;;;;;;5081912;28;20544;-90
2022/09/17 12:30:05;;;;;;;6.70;2.30;;;14.80;52.90;;;;;;5089196;28;20175;-88
2022/09/17 12:32:42;;;;;;;11.67;2.80;;;15.10;48.60;;;;;;5064369;28;20289;-88
2022/09/17 12:35:42;;;;;;;8.87;2.40;;;15.20;35.20;;;;;;5120482;28;20143;-86
2022/09/17 12:38:30;;;;;;;10.47;2.17;;;15.10;31.10;;;;;;5103312;28;20179;-87
2022/09/17 12:44:51;;;;;;;7.90;2.27;;;14.90;44.90;;;;;;5110615;28;20170;-89
2022/09/17 12:47:50;;;;;;;7.30;2.10;;;14.80;49.80;;;;;;5087759;28;20199;-90
2022/09/17 12:53:55;;;;;;;10.67;2.93;;;14.90;49.60;;;;;;5109456;28;20238;-86
2022/09/17 12:57:06;;;;;;;10.83;2.73;;;15.00;54.10;;;;;;5098464;28;20178;-89
2022/09/17 12:59:37;;;;;;;5.87;1.93;;;14.80;52.40;;;;;;5101119;28;20211;-89
2022/09/17 13:09:20;;;;;;;5.73;1.70;;;13.70;40.70;;;;;;5113456;28;20162;-88
2022/09/17 13:12:16;;;;;;;7.60;2.13;;;13.30;32.30;;;;;;5084661;28;20172;-88
2022/09/17 13:14:59;;;;;;;8.60;2.37;;;13.00;16.00;;;;;;5082501;28;20191;-88
2022/09/17 13:21:05;;;;;;;8.20;2.30;;;13.30;25.00;;;;;;5102836;28;20681;-90
2022/09/17 13:23:46;;;;;;;6.90;2.33;;;13.50;28.80;;;;;;5082998;28;20200;-88
2022/09/17 13:26:18;;;;;;;10.13;3.10;;;13.70;33.40;;;;;;5079457;28;20185;-88
2022/09/17 13:28:51;;;;;;;10.97;2.23;;;13.90;42.30;;;;;;5081577;28;20182;-90
2022/09/17 13:31:47;;;;;;;7.90;3.43;;;14.20;46.10;;;;;;5082449;28;20508;-88
2022/09/17 13:34:16;;;;;;;7.77;2.47;;;14.30;50.90;;;;;;5072177;28;20237;-89
2022/09/17 13:37:01;;;;;;;12.57;2.10;;;14.40;46.40;;;;;;5085351;28;20168;-89
2022/09/17 13:39:49;;;;;;;8.50;2.37;;;14.40;27.60;;;;;;5067432;28;20237;-88
2022/09/17 13:42:27;;;;;;;6.77;1.70;;;14.60;23.30;;;;;;5101466;28;20256;-89
2022/09/17 13:45:16;;;;;;;5.40;1.80;;;14.70;15.30;;;;;;5101457;28;20571;-88
2022/09/17 13:48:11;;;;;;;10.43;1.70;;;14.90;10.00;;;;;;5081143;28;20178;-89
2022/09/17 13:50:42;;;;;;;5.57;1.67;;;15.00;1.00;;;;;;5082319;28;20171;-88
2022/09/17 13:53:20;;;;;;;8.13;1.93;;;15.00;1.00;;;;;;5087187;28;20156;-90
2022/09/17 13:56:05;;;;;;;5.20;1.77;;;15.30;1.00;;;;;;5083302;28;20643;-87
2022/09/17 13:58:34;;;;;;;6.00;1.73;;;15.40;1.00;;;;;;5083874;28;20222;-88
2022/09/17 14:01:12;;;;;;;6.93;1.80;;;15.60;1.00;;;;;;5081192;28;20247;-88
2022/09/17 14:03:43;;;;;;;7.97;2.10;;;15.90;1.00;;;;;;5082052;28;20616;-87
2022/09/17 14:06:21;;;;;;;5.67;1.77;;;16.10;1.00;;;;;;5082160;28;20258;-88
2022/09/17 14:08:57;;;;;;;7.17;1.47;;;16.20;1.00;;;;;;5085495;28;20175;-87
2022/09/17 14:11:40;;;;;;;6.73;1.37;;;16.10;1.00;;;;;;5089524;28;20172;-87
2022/09/17 14:14:12;;;;;;;8.63;1.93;;;16.00;1.00;;;;;;5069637;28;20201;-86
2022/09/17 14:16:49;;;;;;;4.57;1.43;;;15.90;1.00;;;;;;5084220;28;20172;-89
2022/09/17 14:19:35;;;;;;;4.60;1.33;;;15.80;1.00;;;;;;5110275;28;20183;-89
2022/09/17 14:22:23;;;;;;;5.93;1.37;;;15.70;1.00;;;;;;5091635;28;20178;-86
2022/09/17 14:25:02;;;;;;;6.20;1.47;;;15.70;1.00;;;;;;5094312;28;20246;-86
2022/09/17 14:27:58;;;;;;;5.70;1.60;;;15.60;1.00;;;;;;5112399;28;20634;-87
2022/09/17 14:30:43;;;;;;;4.70;2.07;;;15.50;1.00;;;;;;5091703;28;20178;-93
2022/09/17 14:33:29;;;;;;;6.73;1.83;;;15.30;9.90;;;;;;5070383;28;20194;-87
2022/09/17 14:36:00;;;;;;;5.27;1.57;;;14.40;53.00;;;;;;5104199;28;20182;-89
2022/09/17 14:38:49;;;;;;;4.30;1.27;;;13.60;82.20;;;;;;5087679;28;20191;-90
2022/09/17 14:41:24;;;;;;;3.47;0.90;;;13.30;82.20;;;;;;5087831;28;20205;-90
2022/09/17 14:43:58;;;;;;;4.27;1.33;;;13.10;71.50;;;;;;5090866;28;20167;-87
2022/09/17 14:46:49;;;;;;;3.47;0.90;;;13.10;81.70;;;;;;5085362;28;20624;-90
2022/09/17 14:49:22;;;;;;;7.07;1.77;;;13.20;76.50;;;;;;5090187;28;20171;-89
2022/09/17 14:51:50;;;;;;;6.77;2.73;;;13.20;77.40;;;;;;5088556;28;20655;-92
2022/09/17 14:54:37;;;;;;;4.53;2.20;;;13.20;81.60;;;;;;5089325;28;20210;-89
2022/09/17 14:57:39;;;;;;;4.03;1.47;;;13.30;83.10;;;;;;5089363;28;20180;-93
2022/09/17 15:00:20;;;;;;;4.77;1.97;;;13.60;85.90;;;;;;5011825;28;20222;-88
2022/09/17 15:02:54;;;;;;;4.27;1.47;;;13.60;83.90;;;;;;5093405;28;20190;-88
2022/09/17 15:05:49;;;;;;;5.53;1.80;;;13.80;83.10;;;;;;5106128;28;20173;-88
2022/09/17 15:08:24;;;;;;;5.17;2.30;;;13.90;80.80;;;;;;5085783;28;20164;-89
2022/09/17 15:11:22;;;;;;;8.60;2.00;;;13.90;78.40;;;;;;5085110;28;20231;-88
2022/09/17 15:14:29;;;;;;;4.97;1.50;;;13.90;84.90;;;;;;5105622;28;20178;-87
2022/09/17 15:17:03;;;;;;;5.03;1.57;;;13.90;85.30;;;;;;5088052;28;20262;-87
2022/09/17 15:19:34;;;;;;;4.33;1.50;;;13.90;86.00;;;;;;5085875;28;20203;-90
2022/09/17 15:22:14;;;;;;;5.10;2.13;;;13.90;89.00;;;;;;5091039;28;20233;-88
2022/09/17 15:25:25;;;;;;;6.03;2.00;;;14.00;87.90;;;;;;5077617;28;20199;-87